Flight Track Log - Related Links

Times and Time Zones

All times are in EDT time to prevent confusion due to time zone crossing. See the N76AD flight status page for this flight to view local times or setup timezone preferences in your user account.

Time Position Orientation Groundspeed Altitude Reporting Facility
EDT Latitude Longitude Course Direction KTS MPH feet Rate Location/Type
Fri 05:54:57 PM 40.9000 -74.2500 21° North 87 100 1,900  Level New York TRACON
Fri 05:55:57 PM 40.9333 -74.2333 21° North 83 96 2,700 750 Climbing New York TRACON
Fri 05:56:57 PM 40.9500 -74.2333 360° North 77 89 3,400 750 Climbing New York TRACON
Fri 05:57:57 PM 40.9667 -74.2167 37° Northeast 81 93 4,200 800 Climbing New York TRACON
Fri 05:58:57 PM 40.9833 -74.2000 37° Northeast 83 96 5,000 800 Climbing New York TRACON
Fri 05:59:57 PM 41.0167 -74.2000 360° North 83 96 5,800 550 Climbing New York TRACON
Fri 06:00:00 PM 41.0830 -74.1668 21° North  Level FlightAware Approximate
Fri 06:00:57 PM 41.0333 -74.1833 37° Northeast 99 114 6,100  Level New York TRACON
Fri 06:01:57 PM 41.0667 -74.1833 360° North 107 123 6,100 -50 Level New York TRACON
Fri 06:02:57 PM 41.1000 -74.1667 21° North 109 125 6,000 -200 Descending New York TRACON
Fri 06:03:57 PM 41.1167 -74.1500 37° Northeast 108 124 5,700 -350 Descending New York TRACON
Fri 06:04:57 PM 41.1500 -74.1333 21° North 110 127 5,300 -300 Descending New York TRACON
Fri 06:05:57 PM 41.1667 -74.1167 37° Northeast 111 128 5,100 -100 Descending New York TRACON
Fri 06:06:57 PM 41.1667 -74.0667 90° East 120 138 5,100  Level New York TRACON
Fri 06:07:57 PM 41.1833 -74.0333 56° Northeast 120 138 5,100  Level New York TRACON
Fri 06:08:57 PM 41.1833 -73.9833 90° East 122 140 5,100  Level New York TRACON
Fri 06:09:57 PM 41.2000 -73.9500 56° Northeast 123 142 5,100  Level New York TRACON
Fri 06:10:57 PM 41.2167 -73.9000 66° East 123 142 5,100  Level New York TRACON
Fri 06:11:57 PM 41.2167 -73.8500 90° East 126 145 5,100  Level New York TRACON
Fri 06:12:57 PM 41.2333 -73.8167 56° Northeast 124 143 5,100  Level New York TRACON
Fri 06:13:57 PM 41.2167 -73.7667 114° Southeast 121 139 5,100  Level New York TRACON
Fri 06:14:57 PM 41.2000 -73.7333 124° Southeast 121 139 5,100  Level New York TRACON
Fri 06:15:57 PM 41.1833 -73.7000 124° Southeast 123 142 5,100 -95 Level New York TRACON
Fri 06:17:03 PM 41.1500 -73.6667 143° Southeast 128 147 4,900 -198 Descending New York TRACON
Fri 06:17:58 PM 41.1333 -73.6500 143° Southeast 124 143 4,700 -316 Descending New York TRACON
Fri 06:18:57 PM 41.1000 -73.6167 143° Southeast 123 142 4,300 -353 Descending New York TRACON
Fri 06:19:57 PM 41.0667 -73.5833 143° Southeast 123 142 4,000 -300 Descending New York TRACON
Fri 06:20:57 PM 41.0500 -73.5667 143° Southeast 115 132 3,700 -298 Descending New York TRACON
Fri 06:21:58 PM 41.0333 -73.5333 124° Southeast 117 135 3,400 -300 Descending New York TRACON
Fri 06:22:57 PM 41.0000 -73.5167 159° South 118 136 3,100 -202 Descending New York TRACON
Fri 06:23:57 PM 40.9667 -73.4833 143° Southeast 120 138 3,000 -200 Descending New York TRACON
Fri 06:24:57 PM 40.9500 -73.4500 123° Southeast 115 132 2,700 -300 Descending New York TRACON
Fri 06:25:57 PM 40.9167 -73.4333 159° South 117 135 2,400 -313 Descending New York TRACON
Fri 06:26:52 PM 40.9000 -73.4000 123° Southeast 119 137 2,100 -209 Descending New York TRACON
Fri 06:27:52 PM 40.8667 -73.3833 159° South 116 133 2,000 -150 Descending New York TRACON
Fri 06:28:52 PM 40.8333 -73.3833 180° South 120 138 1,800 -144 Descending New York TRACON
Fri 06:29:57 PM 40.8000 -73.3833 180° South 108 124 1,700 -192 Descending New York TRACON
Fri 06:30:57 PM 40.7833 -73.3833 180° South 111 128 1,400 -261 Descending New York TRACON
Fri 06:31:52 PM 40.7500 -73.4000 201° Southwest 106 122 1,200 -150 Descending New York TRACON
Fri 06:32:57 PM 40.7167 -73.4000 180° South 103 119 1,100 -48 Descending New York TRACON
Fri 06:33:57 PM 40.6833 -73.4000 180° South 105 121 1,100 50 Level New York TRACON
Fri 06:34:57 PM 40.6833 -73.4000 360° North 98 113 1,200 -150 Climbing New York TRACON
Fri 06:35:57 PM 40.7000 -73.4167 323° Northwest 83 96 800 -400 Descending New York TRACON
Fri 06:36:57 PM 40.7167 -73.4167 360° North 67 77 400 -400 Descending New York TRACON
Fri 06:38:00 PM 40.7288 -73.4134 19° North  Level Estimated
Fri 06:45:00 PM 40.7288 -73.4134 20° North  Level Estimated
Fri 06:46:00 PM 40.7288 -73.4134 20° North  Level Estimated

Login

Don't have an account? Register now (free) for customized features, flight alerts, and more!